createdAt,value
2022-08-09T00:00:00.408Z,7.20
2022-08-09T00:02:58.123Z,4.90
2022-08-09T00:06:15.822Z,4.30
2022-08-09T00:08:31.993Z,4.80
2022-08-09T00:11:05.565Z,3.80
2022-08-09T00:13:38.444Z,4.70
2022-08-09T00:16:09.501Z,6.10
2022-08-09T00:18:41.311Z,4.40
2022-08-09T00:21:11.419Z,4.70
2022-08-09T00:23:57.991Z,5.00
2022-08-09T00:26:33.137Z,4.30
2022-08-09T00:29:02.713Z,5.10
2022-08-09T00:31:59.168Z,9.60
2022-08-09T00:34:20.375Z,5.90
2022-08-09T00:36:49.337Z,6.20
2022-08-09T00:40:13.802Z,5.60
2022-08-09T00:44:11.081Z,6.10
2022-08-09T00:44:56.231Z,4.50
2022-08-09T00:47:25.926Z,4.10
2022-08-09T00:50:01.591Z,5.40
2022-08-09T00:52:31.221Z,5.10
2022-08-09T00:55:03.240Z,4.30
2022-08-09T00:57:33.738Z,4.70
2022-08-09T01:00:21.145Z,6.00
2022-08-09T01:06:17.509Z,6.40
2022-08-09T01:09:11.736Z,6.40
2022-08-09T01:12:05.569Z,6.40
2022-08-09T01:14:44.286Z,5.20
2022-08-09T01:17:22.756Z,4.20
2022-08-09T01:20:02.377Z,5.70
2022-08-09T01:24:01.176Z,5.20
2022-08-09T01:26:18.343Z,5.50
2022-08-09T01:28:50.560Z,5.80
2022-08-09T01:31:23.389Z,4.80
2022-08-09T01:34:17.801Z,5.20
2022-08-09T01:36:49.181Z,5.80
2022-08-09T01:41:59.880Z,4.80
2022-08-09T01:44:31.613Z,4.60
2022-08-09T01:47:02.949Z,6.70
2022-08-09T01:49:38.737Z,4.50
2022-08-09T01:52:10.692Z,7.30
2022-08-09T01:54:44.551Z,7.80
2022-08-09T01:57:44.255Z,11.20
2022-08-09T02:00:34.933Z,7.70
2022-08-09T02:03:06.658Z,12.30
2022-08-09T02:05:53.447Z,9.00
2022-08-09T02:08:35.764Z,8.40
2022-08-09T02:11:17.078Z,7.90
2022-08-09T02:13:55.433Z,7.40
2022-08-09T02:16:59.111Z,10.80
2022-08-09T02:19:38.968Z,6.00
2022-08-09T02:22:31.681Z,6.20
2022-08-09T02:25:08.718Z,6.10
2022-08-09T02:27:57.692Z,5.10
2022-08-09T02:30:30.495Z,6.30
2022-08-09T02:33:00.899Z,6.90
2022-08-09T02:36:01.370Z,3.90
2022-08-09T02:38:28.839Z,4.30
2022-08-09T02:41:10.688Z,6.20
2022-08-09T02:43:54.643Z,7.70
2022-08-09T02:46:28.443Z,6.00
2022-08-09T02:49:01.335Z,5.70
2022-08-09T02:51:40.189Z,4.30
2022-08-09T02:54:14.009Z,5.10
2022-08-09T02:56:51.562Z,9.90
2022-08-09T02:59:36.603Z,5.70
2022-08-09T03:02:12.025Z,5.40
2022-08-09T03:04:42.704Z,4.90
2022-08-09T03:07:14.253Z,5.90
2022-08-09T03:09:54.232Z,5.00
2022-08-09T03:12:26.602Z,7.50
2022-08-09T03:14:56.756Z,12.60
2022-08-09T03:17:26.985Z,6.00
2022-08-09T03:20:03.051Z,7.60
2022-08-09T03:22:41.440Z,6.10
2022-08-09T03:25:21.767Z,7.90
2022-08-09T03:27:56.720Z,4.80
2022-08-09T03:30:29.861Z,6.40
2022-08-09T03:33:17.518Z,5.00
2022-08-09T03:36:13.381Z,5.00
2022-08-09T03:38:41.854Z,4.80
2022-08-09T03:41:15.084Z,4.50
2022-08-09T03:44:03.430Z,4.90
2022-08-09T03:46:35.169Z,3.90
2022-08-09T03:49:08.895Z,7.80
2022-08-09T03:51:58.554Z,5.20
2022-08-09T03:54:34.846Z,5.30
2022-08-09T03:57:20.209Z,4.30
2022-08-09T03:59:55.422Z,5.00
2022-08-09T04:02:28.287Z,4.90
2022-08-09T04:05:00.680Z,5.90
2022-08-09T04:07:33.809Z,6.40
2022-08-09T04:10:29.419Z,4.80
2022-08-09T04:13:11.558Z,6.70
2022-08-09T04:16:17.608Z,4.90
2022-08-09T04:18:28.923Z,8.70
2022-08-09T04:20:57.301Z,9.00
2022-08-09T04:23:25.742Z,9.60
2022-08-09T04:25:55.827Z,7.90
2022-08-09T04:28:30.827Z,7.80
2022-08-09T04:31:09.926Z,9.90
2022-08-09T04:33:51.754Z,9.80
2022-08-09T04:36:24.514Z,14.20
2022-08-09T04:38:54.301Z,12.20
2022-08-09T04:41:24.439Z,11.50
2022-08-09T04:44:07.052Z,8.20
2022-08-09T04:46:58.909Z,11.10
2022-08-09T04:49:52.375Z,8.70
2022-08-09T04:52:27.103Z,5.90
2022-08-09T04:54:57.605Z,7.20
2022-08-09T04:57:59.342Z,7.30
2022-08-09T05:00:17.275Z,8.80
2022-08-09T05:02:48.686Z,8.50
2022-08-09T05:05:31.965Z,9.20
2022-08-09T05:08:13.824Z,7.50
2022-08-09T05:10:44.404Z,7.60
2022-08-09T05:13:14.224Z,7.60
2022-08-09T05:15:47.967Z,8.00
2022-08-09T05:18:38.330Z,7.90
2022-08-09T05:21:13.346Z,7.50
2022-08-09T05:23:58.502Z,9.90
2022-08-09T05:26:36.743Z,7.30
2022-08-09T05:29:23.998Z,6.20
2022-08-09T05:31:58.357Z,7.70
2022-08-09T05:34:30.830Z,5.90
2022-08-09T05:37:11.231Z,4.80
2022-08-09T05:39:43.797Z,5.70
2022-08-09T05:42:18.043Z,5.90
2022-08-09T05:44:54.442Z,7.10
2022-08-09T05:47:24.925Z,7.50
2022-08-09T05:50:29.934Z,7.30
2022-08-09T05:52:53.575Z,11.40
2022-08-09T05:55:24.222Z,8.20
2022-08-09T05:57:56.475Z,8.80
2022-08-09T06:00:28.751Z,6.20
2022-08-09T06:02:59.463Z,7.60
2022-08-09T06:05:57.245Z,6.30
2022-08-09T06:08:24.479Z,7.20
2022-08-09T06:10:55.732Z,7.00
2022-08-09T06:13:25.352Z,6.30
2022-08-09T06:15:57.213Z,6.30
2022-08-09T06:18:28.382Z,8.30
2022-08-09T06:20:58.411Z,4.90
2022-08-09T06:23:55.700Z,5.30
2022-08-09T06:26:22.763Z,8.00
2022-08-09T06:29:00.004Z,5.90
2022-08-09T06:31:39.417Z,4.60
2022-08-09T06:34:19.404Z,8.40
2022-08-09T06:36:47.977Z,4.60
2022-08-09T06:39:17.260Z,6.60
2022-08-09T06:42:09.092Z,6.00
2022-08-09T06:44:34.039Z,6.20
2022-08-09T06:47:04.054Z,5.30
2022-08-09T06:50:12.104Z,5.60
2022-08-09T06:52:25.091Z,7.70
2022-08-09T06:54:54.341Z,4.80
2022-08-09T06:57:25.736Z,8.10
2022-08-09T07:00:57.275Z,5.30
2022-08-09T07:03:00.602Z,6.60
2022-08-09T07:05:58.280Z,5.30
2022-08-09T07:08:22.365Z,4.70
2022-08-09T07:10:53.339Z,7.50
2022-08-09T07:13:28.237Z,6.00
2022-08-09T07:16:43.014Z,4.50
2022-08-09T07:18:47.507Z,5.80
2022-08-09T07:21:19.982Z,4.80
2022-08-09T07:23:57.766Z,7.70
2022-08-09T07:26:26.924Z,6.20
2022-08-09T07:29:08.635Z,4.10
2022-08-09T07:31:45.321Z,5.00
2022-08-09T07:34:20.576Z,8.10
2022-08-09T07:36:49.905Z,2.70
2022-08-09T07:39:20.436Z,5.10
2022-08-09T07:42:07.948Z,4.30
2022-08-09T07:44:52.473Z,4.80
2022-08-09T07:47:23.468Z,3.50
2022-08-09T07:50:04.643Z,4.70
2022-08-09T07:52:35.835Z,3.90
2022-08-09T07:55:08.929Z,4.70
2022-08-09T07:57:47.027Z,3.40
2022-08-09T08:00:20.840Z,3.80
2022-08-09T08:03:05.346Z,2.60
2022-08-09T08:05:53.609Z,3.40
2022-08-09T08:09:01.060Z,5.10
2022-08-09T08:12:25.103Z,4.50
2022-08-09T08:14:02.320Z,6.10
2022-08-09T08:16:32.548Z,2.40
2022-08-09T08:19:04.555Z,3.60
2022-08-09T08:21:33.448Z,5.80
2022-08-09T08:24:11.947Z,4.80
2022-08-09T08:26:55.790Z,5.10
2022-08-09T08:29:28.645Z,3.50
2022-08-09T08:32:08.321Z,3.20
2022-08-09T08:34:41.372Z,2.80
2022-08-09T08:37:15.527Z,2.90
2022-08-09T08:39:44.458Z,2.90
2022-08-09T08:42:13.598Z,2.90
2022-08-09T08:44:43.994Z,4.30
2022-08-09T08:47:16.296Z,4.20
2022-08-09T08:49:46.773Z,2.50
2022-08-09T08:55:08.128Z,3.50
2022-08-09T08:57:37.421Z,3.80
2022-08-09T09:00:16.853Z,2.80
2022-08-09T09:02:52.754Z,2.90
2022-08-09T09:05:57.832Z,3.90
2022-08-09T09:08:30.667Z,2.90
2022-08-09T09:11:04.618Z,4.00
2022-08-09T09:13:47.318Z,4.10
2022-08-09T09:16:30.494Z,2.10
2022-08-09T09:19:36.773Z,4.30
2022-08-09T09:22:03.860Z,3.00
2022-08-09T09:24:39.633Z,2.30
2022-08-09T09:28:02.787Z,4.20
2022-08-09T09:30:20.141Z,3.00
2022-08-09T09:33:15.830Z,2.90
2022-08-09T09:36:02.772Z,2.80
2022-08-09T09:38:57.433Z,2.60
2022-08-09T09:41:33.017Z,2.20
2022-08-09T09:44:10.991Z,4.70
2022-08-09T09:46:50.717Z,2.50
2022-08-09T09:49:31.776Z,3.50
2022-08-09T09:52:16.630Z,3.50
2022-08-09T09:55:16.332Z,2.40
2022-08-09T09:58:17.883Z,2.00
2022-08-09T10:01:00.900Z,3.80
2022-08-09T10:03:57.801Z,3.20
2022-08-09T10:06:52.044Z,3.30
2022-08-09T10:09:27.130Z,3.20
2022-08-09T10:12:12.317Z,3.80
2022-08-09T10:14:51.646Z,3.50
2022-08-09T10:17:50.945Z,4.70
2022-08-09T10:20:32.111Z,2.50
2022-08-09T10:23:16.918Z,2.30
2022-08-09T10:26:06.033Z,2.60
2022-08-09T10:28:37.787Z,3.80
2022-08-09T10:34:08.451Z,2.90
2022-08-09T10:36:42.190Z,4.10
2022-08-09T10:39:15.559Z,4.30
2022-08-09T10:41:47.424Z,2.50
2022-08-09T10:44:24.822Z,2.50
2022-08-09T10:48:12.589Z,2.50
2022-08-09T10:50:05.728Z,2.10
2022-08-09T10:52:34.426Z,3.20
2022-08-09T10:55:24.169Z,3.90
2022-08-09T10:57:56.077Z,4.40
2022-08-09T11:00:31.553Z,3.80
2022-08-09T11:03:15.055Z,3.80
2022-08-09T11:06:23.003Z,3.90
2022-08-09T11:08:53.280Z,6.40
2022-08-09T11:11:23.430Z,6.00
2022-08-09T11:14:31.886Z,3.20
2022-08-09T11:17:06.006Z,2.50
2022-08-09T11:20:12.025Z,4.90
2022-08-09T11:22:45.574Z,3.50
2022-08-09T11:25:25.882Z,2.70
2022-08-09T11:28:34.074Z,4.60
2022-08-09T11:31:36.411Z,2.90
2022-08-09T11:34:15.000Z,4.20
2022-08-09T11:36:49.100Z,2.60
2022-08-09T11:39:17.752Z,2.60
2022-08-09T11:41:46.115Z,3.30
2022-08-09T11:44:18.042Z,3.30
2022-08-09T11:46:59.731Z,3.00
2022-08-09T11:50:53.221Z,4.50
2022-08-09T11:53:15.217Z,2.20
2022-08-09T11:56:02.587Z,3.80
2022-08-09T11:58:51.603Z,2.30
2022-08-09T12:02:16.155Z,2.60
2022-08-09T12:04:28.610Z,3.50
2022-08-09T12:07:01.058Z,2.80
2022-08-09T12:09:33.885Z,3.70
2022-08-09T12:12:13.338Z,2.90
2022-08-09T12:15:07.812Z,2.80
2022-08-09T12:17:43.283Z,2.60
2022-08-09T12:20:16.197Z,4.10
2022-08-09T12:22:50.537Z,2.00
2022-08-09T12:25:36.637Z,2.70
2022-08-09T12:28:59.532Z,2.50
2022-08-09T12:31:31.188Z,2.60
2022-08-09T12:34:09.878Z,4.20
2022-08-09T12:36:59.021Z,2.50
2022-08-09T12:39:59.757Z,2.80
2022-08-09T12:42:30.171Z,2.70
2022-08-09T12:44:59.494Z,3.60
2022-08-09T12:47:32.877Z,4.10
2022-08-09T12:50:25.151Z,2.70
2022-08-09T12:53:09.328Z,2.30
2022-08-09T12:56:14.242Z,2.70
2022-08-09T12:58:30.780Z,4.00
2022-08-09T13:01:04.510Z,2.60
2022-08-09T13:03:53.804Z,4.60
2022-08-09T13:06:42.046Z,3.50
2022-08-09T13:09:24.154Z,2.70
2022-08-09T13:12:02.487Z,3.90
2022-08-09T13:14:41.764Z,3.70
2022-08-09T13:17:44.000Z,2.50
2022-08-09T13:20:16.267Z,2.00
2022-08-09T13:23:05.285Z,3.80
2022-08-09T13:25:54.617Z,4.00
2022-08-09T13:28:34.475Z,2.20
2022-08-09T13:32:15.825Z,2.30
2022-08-09T13:34:00.195Z,2.10
2022-08-09T13:36:41.401Z,3.20
2022-08-09T13:41:17.619Z,2.50
2022-08-09T13:42:11.825Z,4.70
2022-08-09T13:44:43.207Z,2.20
2022-08-09T13:47:31.309Z,3.40
2022-08-09T13:50:12.866Z,2.40
2022-08-09T13:52:48.007Z,2.40
2022-08-09T13:55:17.708Z,3.60
2022-08-09T13:57:56.000Z,3.60
2022-08-09T14:00:29.141Z,3.00
2022-08-09T14:03:16.799Z,2.90
2022-08-09T14:05:58.478Z,3.40
2022-08-09T14:08:31.559Z,2.50
2022-08-09T14:11:01.166Z,3.00
2022-08-09T14:14:22.123Z,2.40
2022-08-09T14:16:28.736Z,3.90
2022-08-09T14:18:58.444Z,2.50
2022-08-09T14:21:29.367Z,2.30
2022-08-09T14:24:01.293Z,4.60
2022-08-09T14:26:39.004Z,2.20
2022-08-09T14:30:15.049Z,3.70
2022-08-09T14:32:10.801Z,2.10
2022-08-09T14:34:42.015Z,2.70
2022-08-09T14:37:11.712Z,3.20
2022-08-09T14:39:47.455Z,2.30
2022-08-09T14:42:40.250Z,2.00
2022-08-09T14:48:02.379Z,2.40
2022-08-09T14:50:35.136Z,2.70
2022-08-09T14:53:11.329Z,3.90
2022-08-09T14:55:48.099Z,3.30
2022-08-09T14:58:19.788Z,2.10
2022-08-09T15:00:51.133Z,4.10
2022-08-09T15:03:21.200Z,3.90
2022-08-09T15:05:53.808Z,4.20
2022-08-09T15:08:30.356Z,2.90
2022-08-09T15:11:00.342Z,3.30
2022-08-09T15:13:48.097Z,4.80
2022-08-09T15:16:18.825Z,4.70
2022-08-09T15:18:48.453Z,3.60
2022-08-09T15:21:55.463Z,3.50
2022-08-09T15:24:12.771Z,4.30
2022-08-09T15:26:45.475Z,4.10
2022-08-09T15:30:58.761Z,3.70
2022-08-09T15:32:04.677Z,5.40
2022-08-09T15:34:35.276Z,2.90
2022-08-09T15:37:37.417Z,4.10
2022-08-09T15:40:21.855Z,2.90
2022-08-09T15:42:53.872Z,3.60
2022-08-09T15:45:29.338Z,4.20
2022-08-09T15:48:07.641Z,3.80
2022-08-09T15:50:50.563Z,3.10
2022-08-09T15:53:19.748Z,2.80
2022-08-09T15:56:28.521Z,5.50
2022-08-09T15:58:56.035Z,4.30
2022-08-09T16:01:24.992Z,2.00
2022-08-09T16:03:54.489Z,3.10
2022-08-09T16:06:32.739Z,3.60
2022-08-09T16:09:05.964Z,3.00
2022-08-09T16:11:34.497Z,2.90
2022-08-09T16:14:07.709Z,4.60
2022-08-09T16:16:39.081Z,4.20
2022-08-09T16:19:14.238Z,4.30
2022-08-09T16:21:51.849Z,4.90
2022-08-09T16:24:32.852Z,5.60
2022-08-09T16:29:37.342Z,2.90
2022-08-09T16:32:18.159Z,3.50
2022-08-09T16:34:57.971Z,5.70
2022-08-09T16:37:55.413Z,5.40
2022-08-09T16:40:29.472Z,6.30
2022-08-09T16:43:05.202Z,6.90
2022-08-09T16:45:43.701Z,2.90
2022-08-09T16:48:38.779Z,8.80
2022-08-09T16:51:08.201Z,5.30
2022-08-09T16:56:33.368Z,5.40
2022-08-09T16:59:06.801Z,7.20
2022-08-09T17:01:39.369Z,3.50
2022-08-09T17:04:24.418Z,4.60
2022-08-09T17:08:40.848Z,6.30
2022-08-09T17:09:47.670Z,5.70
2022-08-09T17:12:17.023Z,6.30
2022-08-09T17:14:48.501Z,9.00
2022-08-09T17:17:25.922Z,5.60
2022-08-09T17:20:33.190Z,6.30
2022-08-09T17:22:52.217Z,7.20
2022-08-09T17:25:22.141Z,6.40
2022-08-09T17:27:54.026Z,9.60
2022-08-09T17:30:25.858Z,5.80
2022-08-09T17:33:00.982Z,7.30
2022-08-09T17:35:36.143Z,6.10
2022-08-09T17:38:24.435Z,7.10
2022-08-09T17:41:00.323Z,3.90
2022-08-09T17:43:37.044Z,6.00
2022-08-09T17:46:09.204Z,4.50
2022-08-09T17:48:51.870Z,5.10
2022-08-09T17:51:21.742Z,4.30
2022-08-09T17:53:55.116Z,9.40
2022-08-09T17:56:35.525Z,9.90
2022-08-09T17:59:09.104Z,12.50
2022-08-09T18:02:06.824Z,19.00
2022-08-09T18:04:33.195Z,15.80
2022-08-09T18:07:04.693Z,10.50
2022-08-09T18:09:41.501Z,10.10
2022-08-09T18:12:20.095Z,6.90
2022-08-09T18:14:54.982Z,10.60
2022-08-09T18:17:27.075Z,9.10
2022-08-09T18:21:00.240Z,5.80
2022-08-09T18:23:05.824Z,8.40
2022-08-09T18:25:50.736Z,6.60
2022-08-09T18:30:41.749Z,7.10
2022-08-09T18:31:14.275Z,5.20
2022-08-09T18:33:48.858Z,5.80
2022-08-09T18:36:32.150Z,6.00
2022-08-09T18:39:06.184Z,6.30
2022-08-09T18:41:36.516Z,6.40
2022-08-09T18:44:13.143Z,9.70
2022-08-09T18:46:47.375Z,9.00
2022-08-09T18:49:32.197Z,5.30
2022-08-09T18:52:11.669Z,4.10
2022-08-09T18:54:49.796Z,5.20
2022-08-09T18:57:23.839Z,7.60
2022-08-09T19:00:01.508Z,5.60
2022-08-09T19:06:02.883Z,6.00
2022-08-09T19:08:32.412Z,5.40
2022-08-09T19:11:00.731Z,4.00
2022-08-09T19:13:38.080Z,7.20
2022-08-09T19:16:21.038Z,6.40
2022-08-09T19:18:49.749Z,8.60
2022-08-09T19:21:18.965Z,6.20
2022-08-09T19:24:36.588Z,7.90
2022-08-09T19:26:40.367Z,8.30
2022-08-09T19:29:18.091Z,5.80
2022-08-09T19:31:51.534Z,5.80
2022-08-09T19:34:23.066Z,4.70
2022-08-09T19:36:57.724Z,4.80
2022-08-09T19:39:42.980Z,10.70
2022-08-09T19:42:14.994Z,7.10
2022-08-09T19:44:51.264Z,7.40
2022-08-09T19:47:23.249Z,6.10
2022-08-09T19:50:07.253Z,8.10
2022-08-09T19:52:49.653Z,5.50
2022-08-09T19:55:30.897Z,8.70
2022-08-09T20:00:48.104Z,9.40
2022-08-09T20:04:26.514Z,9.40
2022-08-09T20:06:22.408Z,9.50
2022-08-09T20:09:03.879Z,8.10
2022-08-09T20:11:52.046Z,7.80
2022-08-09T20:14:50.422Z,7.40
2022-08-09T20:20:27.160Z,7.50
2022-08-09T20:22:58.308Z,6.00
2022-08-09T20:25:29.558Z,6.80
2022-08-09T20:28:27.570Z,9.60
2022-08-09T20:31:09.085Z,9.60
2022-08-09T20:33:43.804Z,9.60
2022-08-09T20:36:14.427Z,7.50
2022-08-09T20:41:37.673Z,8.90
2022-08-09T20:44:10.005Z,7.90
2022-08-09T20:46:43.911Z,7.80
2022-08-09T20:49:15.951Z,8.00
2022-08-09T20:51:50.805Z,7.90
2022-08-09T20:54:19.362Z,8.20
2022-08-09T20:56:49.457Z,9.10
2022-08-09T20:59:50.218Z,7.60
2022-08-09T21:02:17.637Z,5.80
2022-08-09T21:05:56.732Z,6.40
2022-08-09T21:07:40.233Z,7.70
2022-08-09T21:10:13.014Z,7.10
2022-08-09T21:15:33.949Z,6.10
2022-08-09T21:18:22.357Z,6.60
2022-08-09T21:20:54.401Z,7.40
2022-08-09T21:23:35.945Z,5.70
2022-08-09T21:26:12.799Z,5.80
2022-08-09T21:28:51.841Z,8.50
2022-08-09T21:31:24.721Z,5.70
2022-08-09T21:34:14.778Z,5.90
2022-08-09T21:36:57.286Z,6.70
2022-08-09T21:39:41.671Z,5.70
2022-08-09T21:42:11.309Z,6.70
2022-08-09T21:44:42.762Z,4.70
2022-08-09T21:47:14.167Z,8.30
2022-08-09T21:49:46.638Z,8.20
2022-08-09T21:52:20.391Z,6.30
2022-08-09T21:55:04.436Z,5.00
2022-08-09T21:57:38.586Z,6.10
2022-08-09T22:00:33.256Z,5.90
2022-08-09T22:03:06.134Z,6.20
2022-08-09T22:05:41.726Z,6.50
2022-08-09T22:08:14.720Z,6.40
2022-08-09T22:11:00.169Z,6.10
2022-08-09T22:13:35.748Z,6.10
2022-08-09T22:16:07.458Z,5.30
2022-08-09T22:18:52.121Z,6.30
2022-08-09T22:21:44.804Z,6.30
2022-08-09T22:24:17.216Z,6.70
2022-08-09T22:26:51.509Z,6.50
2022-08-09T22:29:28.400Z,7.10
2022-08-09T22:32:01.293Z,7.00
2022-08-09T22:34:29.556Z,5.80
2022-08-09T22:36:59.331Z,5.30
2022-08-09T22:39:55.512Z,6.40
2022-08-09T22:42:22.595Z,8.40
2022-08-09T22:45:00.396Z,7.10
2022-08-09T22:48:13.804Z,10.40
2022-08-09T22:50:32.919Z,7.00
2022-08-09T22:53:03.914Z,10.10
2022-08-09T22:56:06.500Z,7.60
2022-08-09T22:58:33.134Z,7.40
2022-08-09T23:01:03.670Z,7.90
2022-08-09T23:04:03.596Z,7.10
2022-08-09T23:06:35.118Z,5.40
2022-08-09T23:09:06.539Z,9.30
2022-08-09T23:11:37.113Z,7.40
2022-08-09T23:14:09.949Z,6.10
2022-08-09T23:16:39.346Z,6.60
2022-08-09T23:19:07.650Z,5.80
2022-08-09T23:21:36.758Z,6.50
2022-08-09T23:24:08.316Z,7.10
2022-08-09T23:26:38.156Z,6.00
2022-08-09T23:29:08.566Z,5.50
2022-08-09T23:31:37.385Z,5.90
2022-08-09T23:34:05.983Z,7.00
2022-08-09T23:36:35.406Z,9.20
2022-08-09T23:39:06.726Z,7.70
2022-08-09T23:41:35.688Z,6.60
2022-08-09T23:44:04.615Z,7.20
2022-08-09T23:46:33.028Z,5.30
2022-08-09T23:49:02.248Z,7.40
2022-08-09T23:51:30.512Z,6.20
2022-08-09T23:54:02.465Z,6.60
2022-08-09T23:56:53.766Z,7.10
2022-08-09T23:59:24.660Z,9.10
